Time;durP1;ratioP1;P1;durP2;ratioP2;P2;SDS_P1;SDS_P2;PMS_P1;PMS_P2;Temp;Humidity;BMP_temperature;BMP_pressure;BME280_temperature;BME280_humidity;BME280_pressure;Samples;Min_cycle;Max_cycle;Signal;HPM_P1;HPM_P2
2023/12/03 00:01:31;;;;;;;25.10;15.50;;;1.10;99.90;;;;;;4883358;28;92472;-32
2023/12/03 00:03:57;;;;;;;23.35;16.40;;;1.10;99.90;;;;;;4882880;28;96070;-30
2023/12/03 00:06:22;;;;;;;22.77;15.98;;;1.10;99.90;;;;;;4883780;28;95906;-30
2023/12/03 00:08:48;;;;;;;25.90;16.65;;;1.10;99.90;;;;;;4884632;28;93058;-31
2023/12/03 00:11:14;;;;;;;25.10;14.13;;;1.10;99.90;;;;;;4883266;28;93570;-31
2023/12/03 00:13:39;;;;;;;31.13;18.27;;;1.00;99.90;;;;;;4884077;28;95372;-29
2023/12/03 00:16:05;;;;;;;27.90;15.45;;;1.00;99.90;;;;;;4881951;28;96121;-35
2023/12/03 00:18:31;;;;;;;22.08;13.57;;;1.00;99.90;;;;;;4884627;28;94332;-29
2023/12/03 00:20:57;;;;;;;30.45;15.70;;;1.00;99.90;;;;;;4879583;28;92305;-31
2023/12/03 00:23:22;;;;;;;33.85;17.08;;;1.00;99.90;;;;;;4880770;28;94594;-30
2023/12/03 00:25:48;;;;;;;23.40;16.40;;;1.00;99.90;;;;;;4879589;28;94933;-31
2023/12/03 00:28:13;;;;;;;26.23;16.13;;;1.00;99.90;;;;;;4876306;28;95859;-32
2023/12/03 00:30:39;;;;;;;24.35;14.52;;;1.00;99.90;;;;;;4867206;28;92741;-32
2023/12/03 00:33:04;;;;;;;36.95;17.83;;;0.90;99.90;;;;;;4879747;28;94559;-32
2023/12/03 00:35:30;;;;;;;29.73;14.30;;;0.90;99.90;;;;;;4880431;28;94576;-31
2023/12/03 00:37:56;;;;;;;22.95;14.32;;;0.90;99.90;;;;;;4880379;28;92585;-30
2023/12/03 00:40:21;;;;;;;26.98;14.57;;;0.90;99.90;;;;;;4880664;28;93633;-33
2023/12/03 00:42:47;;;;;;;33.53;15.40;;;0.90;99.90;;;;;;4880182;28;94550;-33
2023/12/03 00:45:12;;;;;;;24.00;12.85;;;0.90;99.90;;;;;;4879662;28;94428;-32
2023/12/03 00:47:38;;;;;;;24.63;14.32;;;0.80;99.90;;;;;;4879954;28;94373;-30
2023/12/03 00:50:04;;;;;;;25.27;17.67;;;0.80;99.90;;;;;;4879263;28;93615;-31
2023/12/03 00:52:29;;;;;;;25.90;16.15;;;0.90;99.90;;;;;;4879713;28;95568;-34
2023/12/03 00:54:55;;;;;;;29.20;17.95;;;0.80;99.90;;;;;;4879227;28;95380;-32
2023/12/03 00:57:21;;;;;;;26.10;14.98;;;0.90;99.90;;;;;;4880372;28;93324;-31
2023/12/03 00:59:46;;;;;;;28.60;15.07;;;0.90;99.90;;;;;;4879084;28;94615;-31
2023/12/03 01:02:12;;;;;;;21.52;13.32;;;0.90;99.90;;;;;;4879496;28;93159;-32
2023/12/03 01:04:37;;;;;;;23.65;13.40;;;0.90;99.90;;;;;;4878074;28;95814;-31
2023/12/03 01:07:03;;;;;;;16.52;11.88;;;0.90;99.90;;;;;;4879320;28;94349;-30
2023/12/03 01:09:30;;;;;;;29.20;15.20;;;0.90;99.90;;;;;;4879209;28;92332;-33
2023/12/03 01:11:57;;;;;;;28.85;14.48;;;0.90;99.90;;;;;;4878582;28;95166;-32
2023/12/03 01:14:23;;;;;;;22.75;14.32;;;0.90;99.90;;;;;;4878697;28;94368;-33
2023/12/03 01:16:49;;;;;;;28.70;14.48;;;0.90;99.90;;;;;;4879391;28;93083;-31
2023/12/03 01:19:14;;;;;;;27.13;13.77;;;0.90;99.90;;;;;;4877501;28;94726;-30
2023/12/03 01:21:40;;;;;;;21.67;13.85;;;0.90;99.90;;;;;;4879338;28;93323;-32
2023/12/03 01:24:06;;;;;;;17.33;12.63;;;0.90;99.90;;;;;;4878538;28;94544;-30
2023/12/03 01:26:31;;;;;;;18.52;13.25;;;0.90;99.90;;;;;;4879002;28;93284;-34
2023/12/03 01:28:58;;;;;;;32.63;14.82;;;0.90;99.90;;;;;;4878239;28;94586;-30
2023/12/03 01:31:23;;;;;;;20.25;13.23;;;0.90;99.90;;;;;;4879001;28;94871;-32
2023/12/03 01:33:49;;;;;;;20.58;12.23;;;0.90;99.90;;;;;;4879712;28;94432;-30
2023/12/03 01:36:14;;;;;;;23.85;14.95;;;0.90;99.90;;;;;;4879698;28;92203;-31
2023/12/03 01:38:40;;;;;;;26.17;17.30;;;1.00;99.90;;;;;;4879523;28;93157;-30
2023/12/03 01:41:06;;;;;;;17.58;11.88;;;0.90;99.90;;;;;;4878993;28;96117;-30
2023/12/03 01:43:32;;;;;;;22.65;13.25;;;0.90;99.90;;;;;;4877833;28;96496;-31
2023/12/03 01:45:57;;;;;;;28.40;14.73;;;0.90;99.90;;;;;;4868652;28;92138;-31
2023/12/03 01:48:23;;;;;;;24.23;12.75;;;1.00;99.90;;;;;;4866669;28;95033;-31
2023/12/03 01:50:49;;;;;;;20.30;12.77;;;1.00;99.90;;;;;;4861341;28;94737;-34
2023/12/03 01:53:17;;;;;;;27.20;14.52;;;0.90;99.90;;;;;;4862412;28;94639;-30
2023/12/03 01:55:43;;;;;;;24.75;16.02;;;1.00;99.90;;;;;;4861756;28;92412;-32
2023/12/03 01:58:09;;;;;;;24.30;14.57;;;1.00;99.90;;;;;;4862333;28;91616;-31
2023/12/03 02:00:34;;;;;;;30.45;15.05;;;1.00;99.90;;;;;;4869494;28;95846;-30
2023/12/03 02:03:00;;;;;;;21.98;14.32;;;1.00;99.90;;;;;;4865395;28;94813;-31
2023/12/03 02:05:25;;;;;;;29.30;13.85;;;1.00;99.90;;;;;;4860075;28;94481;-34
2023/12/03 02:07:51;;;;;;;22.52;13.40;;;1.00;99.90;;;;;;4859904;28;92911;-33
2023/12/03 02:10:17;;;;;;;21.48;11.60;;;1.00;99.90;;;;;;4860132;28;94928;-31
2023/12/03 02:12:43;;;;;;;27.30;12.70;;;1.00;99.90;;;;;;4874633;28;94714;-29
2023/12/03 02:15:09;;;;;;;21.20;12.80;;;1.00;99.90;;;;;;4879344;28;93180;-30
2023/12/03 02:17:35;;;;;;;23.13;12.82;;;1.00;99.90;;;;;;4878417;28;94560;-33
2023/12/03 02:20:00;;;;;;;27.25;15.38;;;1.00;99.90;;;;;;4878832;28;95086;-31
2023/12/03 02:22:26;;;;;;;22.52;17.60;;;1.00;99.90;;;;;;4878402;28;94571;-32
2023/12/03 02:24:51;;;;;;;25.38;15.70;;;1.00;99.90;;;;;;4877522;28;95997;-33
2023/12/03 02:27:17;;;;;;;25.40;15.13;;;1.00;99.90;;;;;;4876988;28;93035;-32
2023/12/03 02:29:47;;;;;;;24.25;14.82;;;1.00;99.90;;;;;;4872188;28;95525;-30
2023/12/03 02:32:13;;;;;;;26.48;16.55;;;1.00;99.90;;;;;;4872334;28;95498;-30
2023/12/03 02:34:38;;;;;;;31.00;16.23;;;1.00;99.90;;;;;;4859771;28;93075;-32
2023/12/03 02:37:04;;;;;;;31.00;15.10;;;1.00;99.90;;;;;;4860232;28;95249;-31
2023/12/03 02:39:29;;;;;;;23.30;13.80;;;1.00;99.90;;;;;;4859834;28;95271;-32
2023/12/03 02:41:55;;;;;;;32.22;15.90;;;1.00;99.90;;;;;;4860150;28;94628;-30
2023/12/03 02:44:21;;;;;;;24.58;14.48;;;1.00;99.90;;;;;;4858778;28;92604;-32
2023/12/03 02:46:46;;;;;;;25.45;15.43;;;1.00;99.90;;;;;;4860916;28;92422;-32
2023/12/03 02:49:12;;;;;;;27.63;13.95;;;1.00;99.90;;;;;;4871015;28;95637;-31
2023/12/03 02:51:37;;;;;;;25.38;14.35;;;1.00;99.90;;;;;;4859427;28;94146;-30
2023/12/03 02:54:03;;;;;;;23.92;15.57;;;1.00;99.90;;;;;;4868056;28;94409;-32
2023/12/03 02:56:28;;;;;;;29.55;17.73;;;1.00;99.90;;;;;;4876651;28;92113;-33
2023/12/03 02:58:54;;;;;;;23.45;14.63;;;1.00;99.90;;;;;;4860056;28;94929;-31
2023/12/03 03:01:20;;;;;;;30.25;15.35;;;1.00;99.90;;;;;;4859593;28;95776;-31
2023/12/03 03:03:45;;;;;;;26.40;14.30;;;1.00;99.90;;;;;;4859924;28;94234;-32
2023/12/03 03:06:11;;;;;;;27.00;16.25;;;1.00;99.90;;;;;;4873425;28;92184;-32
2023/12/03 03:08:36;;;;;;;29.35;15.27;;;1.00;99.90;;;;;;4878004;28;94741;-32
2023/12/03 03:11:02;;;;;;;20.25;14.23;;;1.00;99.90;;;;;;4876161;28;94981;-33
2023/12/03 03:13:28;;;;;;;22.55;14.75;;;1.00;99.90;;;;;;4859579;28;94959;-30
2023/12/03 03:15:54;;;;;;;26.35;14.73;;;1.10;99.90;;;;;;4860799;28;92809;-33
2023/12/03 03:18:19;;;;;;;25.70;16.10;;;1.00;99.90;;;;;;4877686;28;95571;-32
2023/12/03 03:20:45;;;;;;;27.35;15.45;;;1.10;99.90;;;;;;4878031;28;95026;-33
2023/12/03 03:23:11;;;;;;;51.72;19.50;;;1.10;99.90;;;;;;4878789;28;92197;-31
2023/12/03 03:25:36;;;;;;;73.38;18.30;;;1.10;99.90;;;;;;4877539;28;94572;-32
2023/12/03 03:28:02;;;;;;;26.25;17.65;;;1.10;99.90;;;;;;4874843;28;94056;-29
2023/12/03 03:30:27;;;;;;;35.40;16.55;;;1.10;99.90;;;;;;4864952;28;93671;-30
2023/12/03 03:32:53;;;;;;;42.50;17.38;;;1.10;99.90;;;;;;4865362;28;92667;-33
2023/12/03 03:35:19;;;;;;;28.52;16.50;;;1.00;99.90;;;;;;4865885;28;93751;-33
2023/12/03 03:37:45;;;;;;;28.73;16.33;;;1.10;99.90;;;;;;4864886;28;94179;-30
2023/12/03 03:40:11;;;;;;;30.85;15.02;;;1.10;99.90;;;;;;4877699;28;94464;-30
2023/12/03 03:42:37;;;;;;;33.08;17.02;;;1.10;99.90;;;;;;4877957;28;95057;-31
2023/12/03 03:45:03;;;;;;;25.70;17.27;;;1.10;99.90;;;;;;4877610;28;93336;-32
2023/12/03 03:47:28;;;;;;;26.00;16.30;;;1.10;99.90;;;;;;4870494;28;94682;-31
2023/12/03 03:49:54;;;;;;;24.60;16.30;;;1.10;99.90;;;;;;4858102;28;95076;-33
2023/12/03 03:52:20;;;;;;;59.90;21.98;;;1.10;99.90;;;;;;4866299;28;95548;-29
2023/12/03 03:54:45;;;;;;;85.47;19.92;;;1.10;99.90;;;;;;4865065;28;93126;-31
2023/12/03 03:57:11;;;;;;;47.45;17.67;;;1.10;99.90;;;;;;4862525;28;94717;-32
2023/12/03 03:59:36;;;;;;;45.03;17.45;;;1.10;99.90;;;;;;4861799;28;93939;-32
2023/12/03 04:02:02;;;;;;;77.53;20.05;;;1.10;99.90;;;;;;4862487;28;94313;-32
2023/12/03 04:04:28;;;;;;;43.42;19.70;;;1.10;99.90;;;;;;4875383;28;93570;-30
2023/12/03 04:06:53;;;;;;;62.67;19.50;;;1.10;99.90;;;;;;4879870;28;95273;-32
2023/12/03 04:09:19;;;;;;;68.70;20.00;;;1.10;99.90;;;;;;4867436;28;95345;-29
2023/12/03 04:11:45;;;;;;;62.10;19.27;;;1.10;99.90;;;;;;4862756;28;94203;-31
2023/12/03 04:14:13;;;;;;;28.92;16.65;;;1.10;99.90;;;;;;4862882;28;94318;-29
2023/12/03 04:16:39;;;;;;;60.92;18.73;;;1.10;99.90;;;;;;4862760;28;94633;-32
2023/12/03 04:19:06;;;;;;;24.58;14.02;;;1.10;99.90;;;;;;4862490;28;95132;-31
2023/12/03 04:21:32;;;;;;;23.55;14.63;;;1.10;99.90;;;;;;4871376;28;93151;-30
2023/12/03 04:23:58;;;;;;;40.03;19.27;;;1.10;99.90;;;;;;4865813;28;93529;-32
2023/12/03 04:26:24;;;;;;;87.25;21.80;;;1.10;99.90;;;;;;4862560;28;94619;-31
2023/12/03 04:28:50;;;;;;;60.00;17.27;;;1.10;99.90;;;;;;4874606;28;94673;-30
2023/12/03 04:31:21;;;;;;;69.45;16.80;;;1.10;99.90;;;;;;4878944;28;93147;-30
2023/12/03 04:33:51;;;;;;;54.40;15.80;;;1.10;99.90;;;;;;4880239;28;93845;-30
2023/12/03 04:36:17;;;;;;;56.42;16.42;;;1.10;99.90;;;;;;4879989;28;94448;-29
2023/12/03 04:38:43;;;;;;;43.20;15.63;;;1.10;99.90;;;;;;4878933;28;93496;-30
2023/12/03 04:41:09;;;;;;;45.85;16.80;;;1.10;99.90;;;;;;4880647;28;92100;-31
2023/12/03 04:43:34;;;;;;;28.83;15.02;;;1.00;99.90;;;;;;4879355;28;94627;-33
2023/12/03 04:46:07;;;;;;;25.42;14.50;;;1.10;99.90;;;;;;4879868;28;94854;-34
2023/12/03 04:48:34;;;;;;;28.55;13.80;;;1.10;99.90;;;;;;4879185;28;94112;-30
2023/12/03 04:51:00;;;;;;;52.47;15.60;;;1.00;99.90;;;;;;4879600;28;93448;-32
2023/12/03 04:53:26;;;;;;;30.23;13.82;;;1.00;99.90;;;;;;4879085;28;94859;-32
2023/12/03 04:55:51;;;;;;;21.35;11.63;;;1.00;99.90;;;;;;4879450;28;95651;-30
2023/12/03 04:58:17;;;;;;;23.67;12.65;;;1.00;99.90;;;;;;4878176;28;95051;-32
2023/12/03 05:00:42;;;;;;;19.92;11.45;;;1.00;99.90;;;;;;4879529;28;93034;-32
2023/12/03 05:03:08;;;;;;;41.20;14.57;;;1.00;99.90;;;;;;4879244;28;94992;-31
2023/12/03 05:05:34;;;;;;;20.40;11.00;;;1.00;99.90;;;;;;4879228;28;94609;-31
2023/12/03 05:07:59;;;;;;;40.75;14.95;;;1.00;99.90;;;;;;4876876;28;94617;-31
2023/12/03 05:10:25;;;;;;;65.63;15.65;;;1.00;99.90;;;;;;4880268;28;92685;-31
2023/12/03 05:12:50;;;;;;;42.50;15.60;;;1.00;99.90;;;;;;4878722;28;92680;-30
2023/12/03 05:15:16;;;;;;;24.85;13.48;;;1.00;99.90;;;;;;4878883;28;96216;-30
2023/12/03 05:17:42;;;;;;;64.55;17.33;;;1.00;99.90;;;;;;4878314;28;94594;-29
2023/12/03 05:20:08;;;;;;;49.40;17.17;;;1.00;99.90;;;;;;4874119;28;93022;-31
2023/12/03 05:22:33;;;;;;;60.75;18.15;;;1.00;99.90;;;;;;4876914;28;93651;-32
2023/12/03 05:24:59;;;;;;;58.50;17.80;;;1.00;99.90;;;;;;4877551;28;94034;-32
2023/12/03 05:27:25;;;;;;;40.22;16.67;;;1.00;99.90;;;;;;4871873;28;93368;-30
2023/12/03 05:29:50;;;;;;;28.38;14.40;;;1.00;99.90;;;;;;4879102;28;92849;-29
2023/12/03 05:32:16;;;;;;;39.17;18.23;;;1.00;99.90;;;;;;4877969;28;92883;-31
2023/12/03 05:34:45;;;;;;;26.77;18.20;;;1.00;99.90;;;;;;4870427;28;95146;-31
2023/12/03 05:37:12;;;;;;;29.75;14.52;;;1.00;99.90;;;;;;4866879;28;94604;-32
2023/12/03 05:39:41;;;;;;;30.45;15.43;;;1.10;99.90;;;;;;4870510;28;92153;-32
2023/12/03 05:42:07;;;;;;;27.52;15.43;;;1.10;99.90;;;;;;4862902;28;94251;-33
2023/12/03 05:44:33;;;;;;;30.17;14.27;;;1.10;99.90;;;;;;4879537;28;95730;-33
2023/12/03 05:46:59;;;;;;;24.90;14.30;;;1.10;99.90;;;;;;4878919;28;95729;-30
2023/12/03 05:49:24;;;;;;;41.45;16.98;;;1.00;99.90;;;;;;4877641;28;94921;-31
2023/12/03 05:51:50;;;;;;;25.05;13.65;;;1.00;99.90;;;;;;4879012;28;94354;-31
2023/12/03 05:54:16;;;;;;;27.45;14.25;;;1.00;99.90;;;;;;4878910;28;94410;-33
2023/12/03 05:56:43;;;;;;;55.15;16.85;;;1.10;99.90;;;;;;4879025;28;94756;-34
2023/12/03 05:59:09;;;;;;;32.33;16.58;;;1.10;99.90;;;;;;4879497;28;93943;-32
2023/12/03 06:01:35;;;;;;;34.50;17.40;;;1.10;99.90;;;;;;4878796;28;93403;-34
2023/12/03 06:04:06;;;;;;;34.38;16.20;;;1.10;99.90;;;;;;4878106;28;95080;-29
2023/12/03 06:06:32;;;;;;;30.75;15.95;;;1.10;99.90;;;;;;4878480;28;94728;-31
2023/12/03 06:08:57;;;;;;;26.67;14.85;;;1.10;99.90;;;;;;4877521;28;96200;-33
2023/12/03 06:11:23;;;;;;;26.52;13.55;;;1.10;99.90;;;;;;4866707;28;92394;-33
2023/12/03 06:13:49;;;;;;;32.45;12.98;;;1.10;99.90;;;;;;4867712;28;94536;-32
2023/12/03 06:16:14;;;;;;;28.23;14.07;;;1.10;99.90;;;;;;4859909;28;94877;-31
2023/12/03 06:18:40;;;;;;;23.83;14.88;;;1.10;99.90;;;;;;4860519;28;94080;-29
2023/12/03 06:21:07;;;;;;;27.17;13.70;;;1.10;99.90;;;;;;4861159;28;93412;-32
2023/12/03 06:23:33;;;;;;;25.85;13.30;;;1.10;99.90;;;;;;4860936;28;94667;-31
2023/12/03 06:25:59;;;;;;;54.50;15.98;;;1.10;99.90;;;;;;4861044;28;94417;-29
2023/12/03 06:28:25;;;;;;;21.42;13.15;;;1.10;99.90;;;;;;4868603;28;95121;-30
2023/12/03 06:30:50;;;;;;;25.58;14.63;;;1.10;99.90;;;;;;4865829;28;94202;-33
2023/12/03 06:33:18;;;;;;;22.77;12.10;;;1.10;99.90;;;;;;4868667;28;95497;-30
2023/12/03 06:35:44;;;;;;;29.93;14.37;;;1.20;99.90;;;;;;4871853;28;95053;-30
2023/12/03 06:38:10;;;;;;;24.13;14.75;;;1.20;99.90;;;;;;4869516;28;93362;-30
2023/12/03 06:40:36;;;;;;;25.42;13.15;;;1.20;99.90;;;;;;4862569;28;93247;-30
2023/12/03 06:43:02;;;;;;;22.80;14.88;;;1.20;99.90;;;;;;4859297;28;94875;-31
2023/12/03 06:45:27;;;;;;;26.30;15.48;;;1.20;99.90;;;;;;4859919;28;95241;-31
2023/12/03 06:47:53;;;;;;;24.67;12.05;;;1.20;99.90;;;;;;4859276;28;92218;-33
2023/12/03 06:50:19;;;;;;;29.40;17.70;;;1.20;99.90;;;;;;4876707;28;93278;-30
2023/12/03 06:52:45;;;;;;;34.45;15.75;;;1.20;99.90;;;;;;4878352;28;94955;-33
2023/12/03 06:55:11;;;;;;;35.10;16.50;;;1.20;99.90;;;;;;4860365;28;94498;-34
2023/12/03 06:57:37;;;;;;;29.15;15.20;;;1.20;99.90;;;;;;4860197;28;93546;-32
2023/12/03 07:00:04;;;;;;;37.47;17.42;;;1.20;99.90;;;;;;4863683;28;94405;-33
2023/12/03 07:02:29;;;;;;;23.73;13.65;;;1.20;99.90;;;;;;4878356;28;95734;-32
2023/12/03 07:04:55;;;;;;;32.50;18.10;;;1.30;99.90;;;;;;4859898;28;94460;-31
2023/12/03 07:07:21;;;;;;;37.38;17.52;;;1.30;99.90;;;;;;4859633;28;92138;-34
2023/12/03 07:09:46;;;;;;;27.65;15.30;;;1.30;99.90;;;;;;4860009;28;94315;-31
2023/12/03 07:12:12;;;;;;;37.55;16.15;;;1.30;99.90;;;;;;4870848;28;93510;-29
2023/12/03 07:14:37;;;;;;;26.58;14.50;;;1.30;99.90;;;;;;4860263;28;94503;-30
2023/12/03 07:17:03;;;;;;;30.60;15.15;;;1.30;99.90;;;;;;4870988;28;93140;-32
2023/12/03 07:19:29;;;;;;;29.80;16.30;;;1.30;99.90;;;;;;4878173;28;94192;-33
2023/12/03 07:21:54;;;;;;;36.55;17.13;;;1.30;99.90;;;;;;4865820;28;95649;-30
2023/12/03 07:24:21;;;;;;;31.48;13.88;;;1.30;99.90;;;;;;4864010;28;94372;-29
2023/12/03 07:26:47;;;;;;;32.17;15.10;;;1.30;99.90;;;;;;4866512;28;93192;-34
2023/12/03 07:29:12;;;;;;;36.45;16.92;;;1.30;99.90;;;;;;4873985;28;94557;-30
2023/12/03 07:31:38;;;;;;;36.58;15.65;;;1.40;99.90;;;;;;4914807;23;94155;-29
2023/12/03 07:34:03;;;;;;;31.88;16.55;;;1.30;99.90;;;;;;4881253;28;93139;-29
2023/12/03 07:36:29;;;;;;;36.70;18.95;;;1.40;99.90;;;;;;4882075;28;92379;-32
2023/12/03 07:38:55;;;;;;;27.83;16.52;;;1.40;99.90;;;;;;4881888;28;93600;-29
2023/12/03 07:41:20;;;;;;;33.10;18.40;;;1.40;99.90;;;;;;4881500;28;94859;-32
2023/12/03 07:43:46;;;;;;;24.40;14.88;;;1.40;99.90;;;;;;4881320;28;94682;-32
2023/12/03 07:46:18;;;;;;;23.67;13.32;;;1.40;99.90;;;;;;4880552;28;94054;-30
2023/12/03 07:48:44;;;;;;;34.08;18.33;;;1.40;99.90;;;;;;4866878;28;93212;-31
2023/12/03 07:51:11;;;;;;;31.40;14.93;;;1.40;99.90;;;;;;4877562;28;93350;-33
2023/12/03 07:53:37;;;;;;;25.95;14.80;;;1.40;99.90;;;;;;4877847;28;94502;-34
2023/12/03 07:56:03;;;;;;;31.13;13.40;;;1.40;99.90;;;;;;4876725;28;93522;-33
2023/12/03 07:58:29;;;;;;;29.45;13.88;;;1.40;99.90;;;;;;4878972;28;94419;-33
2023/12/03 08:00:55;;;;;;;29.25;14.60;;;1.40;99.90;;;;;;4878944;28;95709;-32
2023/12/03 08:03:20;;;;;;;34.92;15.25;;;1.40;99.90;;;;;;4873962;28;94261;-32
2023/12/03 08:05:46;;;;;;;30.48;14.55;;;1.40;99.90;;;;;;4881080;28;94451;-35
2023/12/03 08:08:12;;;;;;;29.30;16.33;;;1.40;99.90;;;;;;4876413;28;92800;-33
2023/12/03 08:10:37;;;;;;;26.50;13.73;;;1.40;99.90;;;;;;4873985;28;95388;-35
2023/12/03 08:13:03;;;;;;;28.60;12.93;;;1.40;99.90;;;;;;4870327;28;95557;-32
2023/12/03 08:15:28;;;;;;;22.80;14.02;;;1.40;99.90;;;;;;4863796;28;94568;-31
2023/12/03 08:17:54;;;;;;;27.65;12.93;;;1.50;99.90;;;;;;4875217;28;93240;-31
2023/12/03 08:20:20;;;;;;;30.08;14.25;;;1.50;99.90;;;;;;4874123;28;95046;-30
2023/12/03 08:22:45;;;;;;;29.77;13.85;;;1.50;99.90;;;;;;4874795;28;94582;-34
2023/12/03 08:25:11;;;;;;;31.23;15.23;;;1.50;99.90;;;;;;4872899;28;93799;-32
2023/12/03 08:27:37;;;;;;;26.90;13.65;;;1.50;99.90;;;;;;4872677;28;94759;-33
2023/12/03 08:30:03;;;;;;;24.15;12.35;;;1.50;99.90;;;;;;4871002;28;94707;-31
2023/12/03 08:32:28;;;;;;;27.20;13.77;;;1.50;99.90;;;;;;4861433;28;93641;-30
2023/12/03 08:34:54;;;;;;;25.90;13.52;;;1.50;99.90;;;;;;4862761;28;94041;-32
2023/12/03 08:37:20;;;;;;;33.58;15.30;;;1.60;99.90;;;;;;4877180;28;94482;-30
2023/12/03 08:39:45;;;;;;;20.48;10.93;;;1.60;99.90;;;;;;4880443;28;94610;-31
2023/12/03 08:42:11;;;;;;;20.17;11.68;;;1.60;99.90;;;;;;4865115;28;93657;-30
2023/12/03 08:44:37;;;;;;;29.75;16.70;;;1.60;99.90;;;;;;4862991;28;94172;-33
2023/12/03 08:47:02;;;;;;;30.30;13.07;;;1.60;99.90;;;;;;4862850;28;94689;-32
2023/12/03 08:49:29;;;;;;;28.60;16.20;;;1.60;99.90;;;;;;4870625;28;95529;-31
2023/12/03 08:51:55;;;;;;;29.58;15.73;;;1.60;99.90;;;;;;4871101;28;94031;-34
2023/12/03 08:54:20;;;;;;;30.88;17.15;;;1.60;99.90;;;;;;4866015;28;92732;-32
2023/12/03 08:56:46;;;;;;;31.40;16.88;;;1.70;99.90;;;;;;4862808;28;94115;-31
2023/12/03 08:59:12;;;;;;;29.98;14.68;;;1.70;99.90;;;;;;4867393;28;95977;-31
2023/12/03 09:01:40;;;;;;;29.70;14.30;;;1.70;99.90;;;;;;4857764;28;95727;-32
2023/12/03 09:04:06;;;;;;;25.63;13.30;;;1.70;99.90;;;;;;4857908;28;92963;-31
2023/12/03 09:06:31;;;;;;;30.15;14.15;;;1.70;99.90;;;;;;4858880;28;94074;-31
2023/12/03 09:08:57;;;;;;;25.67;14.73;;;1.80;99.90;;;;;;4857881;28;95067;-33
2023/12/03 09:11:23;;;;;;;30.27;16.20;;;1.80;99.90;;;;;;4856598;28;94585;-35
2023/12/03 09:13:49;;;;;;;34.85;16.73;;;1.80;99.90;;;;;;4870478;28;92753;-30
2023/12/03 09:16:15;;;;;;;32.00;18.08;;;1.80;99.90;;;;;;4870496;28;92165;-30
2023/12/03 09:18:40;;;;;;;34.67;18.35;;;1.80;99.90;;;;;;4858542;28;94689;-30
2023/12/03 09:21:13;;;;;;;30.63;15.88;;;1.80;99.90;;;;;;4857617;28;93260;-31
2023/12/03 09:23:39;;;;;;;29.77;15.80;;;1.90;99.90;;;;;;4858231;28;96007;-30
2023/12/03 09:26:05;;;;;;;29.20;16.60;;;1.90;99.90;;;;;;4858005;28;93039;-32
2023/12/03 09:28:32;;;;;;;34.33;16.88;;;1.90;99.90;;;;;;4865765;28;94909;-33
2023/12/03 09:30:58;;;;;;;32.15;17.58;;;2.00;99.90;;;;;;4875145;28;94363;-32
2023/12/03 09:33:28;;;;;;;35.83;16.20;;;2.00;99.90;;;;;;4875289;28;94308;-33
2023/12/03 09:35:56;;;;;;;35.60;17.20;;;2.10;99.90;;;;;;4875212;28;94176;-34
2023/12/03 09:38:22;;;;;;;34.08;16.17;;;2.10;99.90;;;;;;4875505;28;94639;-35
2023/12/03 09:40:49;;;;;;;26.58;16.42;;;2.10;99.90;;;;;;4876799;28;95066;-30
2023/12/03 09:43:20;;;;;;;33.38;17.75;;;2.10;99.90;;;;;;4874530;28;94042;-32
2023/12/03 09:45:46;;;;;;;33.08;18.63;;;2.10;99.90;;;;;;4875691;28;92170;-32
2023/12/03 09:48:14;;;;;;;34.50;17.50;;;2.10;99.90;;;;;;4874419;28;95868;-31
2023/12/03 09:50:45;;;;;;;31.00;20.50;;;2.20;99.90;;;;;;4875995;28;95761;-31
2023/12/03 09:53:11;;;;;;;36.28;19.45;;;2.20;99.90;;;;;;4875011;28;93268;-31
2023/12/03 09:55:40;;;;;;;33.78;19.05;;;2.20;99.90;;;;;;4875871;28;93217;-32
2023/12/03 09:58:09;;;;;;;41.40;21.95;;;2.30;99.90;;;;;;4875017;28;95126;-32
2023/12/03 10:00:37;;;;;;;35.97;18.42;;;2.30;99.90;;;;;;4876131;28;94463;-31
2023/12/03 10:03:04;;;;;;;26.92;17.23;;;2.30;99.90;;;;;;4874963;28;93450;-32
2023/12/03 10:05:30;;;;;;;39.35;19.60;;;2.40;99.90;;;;;;4875943;28;93086;-34
2023/12/03 10:07:57;;;;;;;33.42;19.40;;;2.50;99.90;;;;;;4874639;28;94773;-31
2023/12/03 10:10:28;;;;;;;42.80;22.13;;;2.50;99.90;;;;;;4875314;28;94734;-30
2023/12/03 10:12:55;;;;;;;42.58;19.27;;;2.60;99.90;;;;;;4864996;28;94222;-31
2023/12/03 10:15:21;;;;;;;33.92;21.10;;;2.70;99.90;;;;;;4875018;28;92943;-32
2023/12/03 10:17:48;;;;;;;36.45;21.10;;;2.80;99.90;;;;;;4875989;28;94772;-32
2023/12/03 10:20:22;;;;;;;30.85;21.27;;;2.70;99.90;;;;;;4875571;28;95142;-32
2023/12/03 10:22:49;;;;;;;34.63;21.33;;;2.70;99.90;;;;;;4875891;28;94034;-33
2023/12/03 10:25:32;;;;;;;36.90;23.70;;;2.70;99.90;;;;;;4874420;28;93628;-32
2023/12/03 10:28:00;;;;;;;32.33;19.63;;;2.60;99.90;;;;;;4871616;28;95304;-31
2023/12/03 10:30:26;;;;;;;38.58;20.65;;;2.70;99.90;;;;;;4863300;28;95133;-30
2023/12/03 10:32:52;;;;;;;39.67;21.48;;;2.70;99.90;;;;;;4857336;28;93486;-33
2023/12/03 10:35:25;;;;;;;34.95;18.35;;;2.80;99.90;;;;;;4857640;28;92261;-34
2023/12/03 10:37:51;;;;;;;32.47;20.15;;;2.80;99.90;;;;;;4876478;28;96282;-32
2023/12/03 10:40:18;;;;;;;33.42;21.55;;;2.90;99.90;;;;;;4861286;28;95989;-32
2023/12/03 10:42:45;;;;;;;31.27;21.10;;;3.00;99.90;;;;;;4863495;28;93684;-31
2023/12/03 10:45:13;;;;;;;32.72;22.05;;;3.00;99.90;;;;;;4861565;28;93523;-32
2023/12/03 10:47:39;;;;;;;40.22;21.67;;;3.00;99.90;;;;;;4858466;28;94445;-31
2023/12/03 10:50:07;;;;;;;41.78;22.15;;;3.00;99.90;;;;;;4860035;28;95123;-32
2023/12/03 10:52:35;;;;;;;38.83;20.98;;;3.00;99.90;;;;;;4866605;28;92917;-33
2023/12/03 10:55:02;;;;;;;29.15;19.75;;;3.00;99.90;;;;;;4857098;28;93427;-34
2023/12/03 10:57:32;;;;;;;30.73;19.83;;;2.90;99.90;;;;;;4857599;28;94827;-30
2023/12/03 11:00:11;;;;;;;29.20;18.17;;;2.90;99.90;;;;;;4856907;28;94510;-32
2023/12/03 11:02:45;;;;;;;37.92;19.67;;;2.90;99.90;;;;;;4857474;28;95619;-32
2023/12/03 11:05:34;;;;;;;33.58;19.25;;;3.00;99.90;;;;;;4855892;28;93223;-29
2023/12/03 11:08:02;;;;;;;45.38;23.00;;;3.00;99.90;;;;;;4856258;28;94849;-32
2023/12/03 11:10:28;;;;;;;32.90;21.30;;;2.90;99.90;;;;;;4857474;28;93259;-33
2023/12/03 11:12:54;;;;;;;32.38;21.00;;;2.90;99.90;;;;;;4857632;28;92817;-34
2023/12/03 11:15:21;;;;;;;33.40;20.67;;;2.90;99.90;;;;;;4856724;28;94579;-33
2023/12/03 11:17:49;;;;;;;35.17;21.42;;;3.00;99.90;;;;;;4856546;28;94665;-31
2023/12/03 11:20:27;;;;;;;29.65;20.58;;;3.00;99.90;;;;;;4857559;28;93750;-31
2023/12/03 11:23:17;;;;;;;33.93;18.80;;;3.10;99.90;;;;;;4875748;28;93470;-34
2023/12/03 11:25:55;;;;;;;30.52;17.77;;;3.10;99.90;;;;;;4859020;28;94210;-34
2023/12/03 11:28:22;;;;;;;;;;;3.30;99.90;;;;;;4865140;28;95719;-34
2023/12/03 11:30:48;;;;;;;38.83;23.52;;;3.30;99.90;;;;;;4874126;28;94922;-31
2023/12/03 11:33:14;;;;;;;36.50;19.27;;;3.10;99.90;;;;;;4856660;28;93607;-32
2023/12/03 11:35:42;;;;;;;39.13;18.90;;;3.00;99.90;;;;;;4857191;28;94955;-31
2023/12/03 11:38:19;;;;;;;33.93;21.13;;;2.90;99.90;;;;;;4856828;28;94663;-31
2023/12/03 11:40:45;;;;;;;32.80;20.42;;;3.00;99.90;;;;;;4855450;28;94521;-33
2023/12/03 11:43:24;;;;;;;31.73;21.42;;;2.90;99.90;;;;;;4865934;28;92957;-33
2023/12/03 11:45:53;;;;;;;31.02;18.80;;;2.80;99.90;;;;;;4860166;28;92992;-30
2023/12/03 11:48:19;;;;;;;32.35;17.83;;;2.90;99.90;;;;;;4875592;28;95278;-33
2023/12/03 11:50:48;;;;;;;37.53;18.70;;;2.90;99.90;;;;;;4875388;28;93627;-31
2023/12/03 11:53:15;;;;;;;;;;;2.90;99.90;;;;;;4875526;28;95661;-34
2023/12/03 11:55:47;;;;;;;35.78;20.98;;;2.80;99.90;;;;;;4876844;28;93205;-34
2023/12/03 11:58:14;;;;;;;29.40;17.45;;;2.80;99.90;;;;;;4872259;28;94085;-30
2023/12/03 12:00:40;;;;;;;31.38;21.20;;;2.80;99.90;;;;;;4856050;28;94872;-30
2023/12/03 12:03:07;;;;;;;29.20;18.42;;;2.80;99.90;;;;;;4868919;28;93376;-30
2023/12/03 12:05:42;;;;;;;32.33;17.48;;;2.70;99.90;;;;;;4856332;28;94473;-30
2023/12/03 12:08:08;;;;;;;30.50;17.13;;;2.50;99.90;;;;;;4855803;28;94504;-31
2023/12/03 12:10:34;;;;;;;27.40;16.80;;;2.60;99.90;;;;;;4856814;28;95702;-31
2023/12/03 12:13:02;;;;;;;25.38;15.57;;;2.60;99.90;;;;;;4855622;28;93309;-33
2023/12/03 12:15:27;;;;;;;28.85;17.30;;;2.60;99.90;;;;;;4867978;28;93286;-29
2023/12/03 12:17:53;;;;;;;41.22;23.08;;;2.60;99.90;;;;;;4876937;28;96187;-35
2023/12/03 12:20:27;;;;;;;25.30;17.17;;;2.40;99.90;;;;;;4865736;28;93811;-32
2023/12/03 12:22:53;;;;;;;32.78;21.30;;;2.50;99.90;;;;;;4867276;28;93346;-32
2023/12/03 12:25:20;;;;;;;36.72;20.92;;;2.40;99.90;;;;;;4879706;28;93867;-31
2023/12/03 12:27:48;;;;;;;40.78;22.50;;;2.40;99.90;;;;;;4878648;28;94913;-32
2023/12/03 12:30:16;;;;;;;29.63;18.88;;;2.30;99.90;;;;;;4869129;28;94252;-31
2023/12/03 12:32:42;;;;;;;39.67;21.45;;;2.40;99.90;;;;;;4878400;28;94537;-33
2023/12/03 12:35:09;;;;;;;39.03;23.23;;;2.40;99.90;;;;;;4868742;28;92837;-33